createdAt,value
2018-12-26T00:00:48.316Z,0
2018-12-26T00:01:49.875Z,0
2018-12-26T00:02:51.260Z,0
2018-12-26T00:03:52.661Z,0
2018-12-26T00:04:54.187Z,0
2018-12-26T00:05:55.603Z,0
2018-12-26T00:06:56.993Z,0
2018-12-26T00:07:58.499Z,0
2018-12-26T00:08:59.892Z,0
2018-12-26T00:10:01.291Z,0
2018-12-26T00:11:02.821Z,0
2018-12-26T00:12:04.211Z,0
2018-12-26T00:13:05.734Z,0
2018-12-26T00:14:07.117Z,0
2018-12-26T00:15:08.508Z,0
2018-12-26T00:16:10.024Z,0
2018-12-26T00:17:11.417Z,0
2018-12-26T00:18:12.803Z,0
2018-12-26T00:19:14.551Z,0
2018-12-26T00:20:15.945Z,0
2018-12-26T00:21:17.349Z,0
2018-12-26T00:22:19.272Z,0
2018-12-26T00:23:21.385Z,0
2018-12-26T00:24:23.180Z,0
2018-12-26T00:25:25.621Z,0
2018-12-26T00:26:27.018Z,0
2018-12-26T00:27:28.963Z,0
2018-12-26T00:28:30.354Z,0
2018-12-26T00:29:31.818Z,0
2018-12-26T00:30:33.210Z,0
2018-12-26T00:31:35.517Z,0
2018-12-26T00:32:37.286Z,0
2018-12-26T00:33:39.127Z,0
2018-12-26T00:34:40.523Z,0
2018-12-26T00:35:42.316Z,0
2018-12-26T00:36:43.949Z,0
2018-12-26T00:37:45.297Z,0
2018-12-26T00:38:46.686Z,0
2018-12-26T00:39:48.695Z,0
2018-12-26T00:40:50.085Z,0
2018-12-26T00:41:51.475Z,0
2018-12-26T00:42:53.003Z,0
2018-12-26T00:43:55.172Z,0
2018-12-26T00:44:57.023Z,0
2018-12-26T00:45:58.574Z,0
2018-12-26T00:47:02.950Z,0
2018-12-26T00:48:04.504Z,0
2018-12-26T00:49:06.646Z,0
2018-12-26T00:50:08.581Z,0
2018-12-26T00:51:09.978Z,0
2018-12-26T00:52:11.505Z,0
2018-12-26T00:53:12.903Z,0
2018-12-26T00:54:14.375Z,0
2018-12-26T00:55:16.193Z,0
2018-12-26T00:56:17.593Z,0
2018-12-26T00:57:19.124Z,0
2018-12-26T00:58:20.921Z,0
2018-12-26T00:59:23.759Z,0
2018-12-26T01:00:25.276Z,0
2018-12-26T01:01:27.484Z,0
2018-12-26T01:02:30.106Z,0
2018-12-26T01:03:31.438Z,0
2018-12-26T01:04:33.079Z,0
2018-12-26T01:05:34.912Z,0
2018-12-26T01:06:36.371Z,0
2018-12-26T01:07:37.760Z,0
2018-12-26T01:08:39.252Z,0
2018-12-26T01:09:40.653Z,0
2018-12-26T01:10:42.047Z,0
2018-12-26T01:11:43.576Z,0
2018-12-26T01:12:44.979Z,0
2018-12-26T01:13:46.383Z,0
2018-12-26T01:14:47.896Z,0
2018-12-26T01:15:49.292Z,0
2018-12-26T01:16:50.782Z,0
2018-12-26T01:17:52.175Z,0
2018-12-26T01:18:53.656Z,0
2018-12-26T01:19:55.084Z,0
2018-12-26T01:20:56.540Z,0
2018-12-26T01:21:57.937Z,0
2018-12-26T01:22:59.420Z,0
2018-12-26T01:24:00.808Z,0
2018-12-26T01:25:02.206Z,0
2018-12-26T01:26:03.740Z,0
2018-12-26T01:27:05.137Z,0
2018-12-26T01:28:06.526Z,0
2018-12-26T01:29:08.019Z,0
2018-12-26T01:30:09.408Z,0
2018-12-26T01:31:10.798Z,0
2018-12-26T01:32:12.762Z,0
2018-12-26T01:33:14.155Z,0
2018-12-26T01:34:15.544Z,0
2018-12-26T01:35:17.116Z,0
2018-12-26T01:36:18.511Z,0
2018-12-26T01:37:19.900Z,0
2018-12-26T01:38:21.447Z,0
2018-12-26T01:39:22.841Z,0
2018-12-26T01:40:24.233Z,0
2018-12-26T01:41:25.764Z,0
2018-12-26T01:42:27.154Z,0
2018-12-26T01:43:28.547Z,0
2018-12-26T01:44:30.079Z,0
2018-12-26T01:45:31.478Z,0
2018-12-26T01:46:32.867Z,0
2018-12-26T01:47:34.400Z,0
2018-12-26T01:48:36.168Z,0
2018-12-26T01:49:38.094Z,0
2018-12-26T01:50:39.485Z,0
2018-12-26T01:51:40.984Z,0
2018-12-26T01:52:42.377Z,0
2018-12-26T01:53:43.868Z,0
2018-12-26T01:54:45.261Z,0
2018-12-26T01:55:46.654Z,0
2018-12-26T01:56:48.179Z,0
2018-12-26T01:57:49.524Z,0
2018-12-26T01:58:50.921Z,0
2018-12-26T01:59:52.502Z,0
2018-12-26T02:00:53.895Z,0
2018-12-26T02:01:55.288Z,0
2018-12-26T02:02:56.828Z,0
2018-12-26T02:03:58.235Z,0
2018-12-26T02:04:59.624Z,0
2018-12-26T02:06:01.155Z,0
2018-12-26T02:07:02.547Z,0
2018-12-26T02:08:04.029Z,0
2018-12-26T02:09:05.426Z,0
2018-12-26T02:10:06.914Z,0
2018-12-26T02:11:08.311Z,0
2018-12-26T02:12:09.790Z,0
2018-12-26T02:13:11.192Z,0
2018-12-26T02:14:12.671Z,0
2018-12-26T02:15:14.060Z,0
2018-12-26T02:16:15.507Z,0
2018-12-26T02:17:17.365Z,0
2018-12-26T02:18:18.779Z,0
2018-12-26T02:19:20.161Z,0
2018-12-26T02:20:21.722Z,0
2018-12-26T02:21:23.116Z,0
2018-12-26T02:22:24.506Z,0
2018-12-26T02:23:26.043Z,0
2018-12-26T02:24:27.436Z,0
2018-12-26T02:25:28.826Z,0
2018-12-26T02:26:36.414Z,0
2018-12-26T02:27:31.717Z,0
2018-12-26T02:28:33.269Z,0
2018-12-26T02:29:34.663Z,0
2018-12-26T02:30:36.132Z,0
2018-12-26T02:31:37.552Z,0
2018-12-26T02:32:39.008Z,0
2018-12-26T02:33:40.783Z,0
2018-12-26T02:34:42.299Z,0
2018-12-26T02:35:43.704Z,0
2018-12-26T02:36:45.180Z,0
2018-12-26T02:37:46.968Z,0
2018-12-26T02:38:48.498Z,0
2018-12-26T02:39:49.895Z,0
2018-12-26T02:40:51.349Z,0
2018-12-26T02:41:52.743Z,0
2018-12-26T02:42:54.137Z,0
2018-12-26T02:43:55.671Z,0
2018-12-26T02:44:57.061Z,0
2018-12-26T02:45:58.416Z,0
2018-12-26T02:46:59.994Z,0
2018-12-26T02:48:01.382Z,0
2018-12-26T02:49:03.173Z,0
2018-12-26T02:50:04.560Z,0
2018-12-26T02:51:05.952Z,0
2018-12-26T02:52:07.608Z,0
2018-12-26T02:53:08.996Z,0
2018-12-26T02:54:10.390Z,0
2018-12-26T02:55:11.957Z,0
2018-12-26T02:56:13.345Z,0
2018-12-26T02:57:14.737Z,0
2018-12-26T02:58:16.277Z,0
2018-12-26T02:59:17.676Z,0
2018-12-26T03:00:19.073Z,0
2018-12-26T03:01:20.570Z,0
2018-12-26T03:02:21.956Z,0
2018-12-26T03:03:23.346Z,0
2018-12-26T03:04:24.893Z,0
2018-12-26T03:05:26.282Z,0
2018-12-26T03:06:27.672Z,0
2018-12-26T03:07:29.221Z,0
2018-12-26T03:08:30.609Z,0
2018-12-26T03:09:32.093Z,0
2018-12-26T03:10:33.483Z,0
2018-12-26T03:11:34.972Z,0
2018-12-26T03:12:36.367Z,0
2018-12-26T03:13:37.859Z,0
2018-12-26T03:14:39.248Z,0
2018-12-26T03:15:41.110Z,0
2018-12-26T03:16:42.508Z,0
2018-12-26T03:17:43.896Z,0
2018-12-26T03:18:45.468Z,0
2018-12-26T03:19:46.867Z,0
2018-12-26T03:20:48.316Z,0
2018-12-26T03:21:49.789Z,0
2018-12-26T03:22:51.181Z,0
2018-12-26T03:23:52.573Z,0
2018-12-26T03:24:54.111Z,0
2018-12-26T03:25:55.501Z,0
2018-12-26T03:26:56.895Z,0
2018-12-26T03:27:58.429Z,0
2018-12-26T03:28:59.908Z,0
2018-12-26T03:30:01.515Z,0
2018-12-26T03:31:02.907Z,0
2018-12-26T03:32:04.295Z,0
2018-12-26T03:33:06.864Z,0
2018-12-26T03:34:08.280Z,0
2018-12-26T03:35:09.673Z,0
2018-12-26T03:36:11.187Z,0
2018-12-26T03:37:12.610Z,0
2018-12-26T03:38:14.082Z,0
2018-12-26T03:39:15.481Z,0
2018-12-26T03:40:17.074Z,0
2018-12-26T03:41:18.399Z,0
2018-12-26T03:42:19.793Z,0
2018-12-26T03:43:21.269Z,0
2018-12-26T03:44:22.659Z,0
2018-12-26T03:45:24.049Z,0
2018-12-26T03:46:25.587Z,0
2018-12-26T03:47:26.977Z,0
2018-12-26T03:48:28.471Z,0
2018-12-26T03:49:29.859Z,0
2018-12-26T03:50:31.349Z,0
2018-12-26T03:51:32.749Z,0
2018-12-26T03:52:34.139Z,0
2018-12-26T03:53:35.688Z,0
2018-12-26T03:54:37.015Z,0
2018-12-26T03:55:38.406Z,0
2018-12-26T03:56:39.990Z,0
2018-12-26T03:57:41.383Z,0
2018-12-26T03:58:42.778Z,0
2018-12-26T03:59:44.313Z,0
2018-12-26T04:00:45.708Z,0
2018-12-26T04:01:47.093Z,0
2018-12-26T04:02:48.663Z,0
2018-12-26T04:03:50.071Z,0
2018-12-26T04:04:51.513Z,0
2018-12-26T04:05:52.907Z,0
2018-12-26T04:06:54.395Z,0
2018-12-26T04:07:55.803Z,0
2018-12-26T04:08:57.277Z,0
2018-12-26T04:09:58.678Z,0
2018-12-26T04:11:00.157Z,0
2018-12-26T04:12:01.549Z,0
2018-12-26T04:13:03.039Z,0
2018-12-26T04:14:04.424Z,0
2018-12-26T04:15:05.919Z,0
2018-12-26T04:16:07.309Z,0
2018-12-26T04:17:08.703Z,0
2018-12-26T04:18:10.242Z,0
2018-12-26T04:19:11.636Z,0
2018-12-26T04:20:13.024Z,0
2018-12-26T04:21:14.563Z,0
2018-12-26T04:22:15.953Z,0
2018-12-26T04:23:17.362Z,0
2018-12-26T04:24:18.884Z,0
2018-12-26T04:25:20.271Z,0
2018-12-26T04:26:21.664Z,0
2018-12-26T04:27:23.205Z,0
2018-12-26T04:28:24.592Z,0
2018-12-26T04:29:26.083Z,0
2018-12-26T04:30:27.473Z,0
2018-12-26T04:31:28.967Z,0
2018-12-26T04:32:30.354Z,0
2018-12-26T04:33:31.750Z,0
2018-12-26T04:34:33.285Z,0
2018-12-26T04:35:34.679Z,0
2018-12-26T04:36:36.070Z,0
2018-12-26T04:37:37.611Z,0
2018-12-26T04:38:39.003Z,0
2018-12-26T04:39:40.493Z,0
2018-12-26T04:40:41.890Z,0
2018-12-26T04:41:43.381Z,0
2018-12-26T04:42:44.728Z,0
2018-12-26T04:43:46.253Z,0
2018-12-26T04:44:47.649Z,0
2018-12-26T04:45:49.136Z,0
2018-12-26T04:46:50.654Z,0
2018-12-26T04:47:52.016Z,0
2018-12-26T04:48:53.407Z,0
2018-12-26T04:49:54.897Z,0
2018-12-26T04:50:56.287Z,0
2018-12-26T04:51:57.780Z,0
2018-12-26T04:52:59.173Z,0
2018-12-26T04:54:00.582Z,0
2018-12-26T04:55:02.267Z,0
2018-12-26T04:56:03.469Z,0
2018-12-26T04:57:04.860Z,0
2018-12-26T04:58:06.422Z,0
2018-12-26T04:59:07.833Z,0
2018-12-26T05:00:09.303Z,0
2018-12-26T05:01:10.691Z,0
2018-12-26T05:02:12.185Z,0
2018-12-26T05:03:13.571Z,0
2018-12-26T05:04:15.065Z,0
2018-12-26T05:05:16.452Z,0
2018-12-26T05:06:17.948Z,0
2018-12-26T05:07:19.337Z,0
2018-12-26T05:08:20.823Z,0
2018-12-26T05:09:22.214Z,0
2018-12-26T05:10:23.704Z,0
2018-12-26T05:11:25.094Z,0
2018-12-26T05:12:26.583Z,0
2018-12-26T05:13:27.975Z,0
2018-12-26T05:14:29.365Z,0
2018-12-26T05:15:30.906Z,0
2018-12-26T05:16:32.305Z,0
2018-12-26T05:17:33.696Z,0
2018-12-26T05:18:35.225Z,0
2018-12-26T05:19:36.617Z,0
2018-12-26T05:20:38.112Z,0
2018-12-26T05:21:39.504Z,0
2018-12-26T05:22:40.986Z,0
2018-12-26T05:23:42.379Z,0
2018-12-26T05:24:43.868Z,0
2018-12-26T05:25:45.261Z,0
2018-12-26T05:26:46.747Z,0
2018-12-26T05:27:48.144Z,0
2018-12-26T05:28:49.531Z,0
2018-12-26T05:29:51.069Z,0
2018-12-26T05:30:52.464Z,0
2018-12-26T05:31:53.855Z,0
2018-12-26T05:32:55.397Z,0
2018-12-26T05:33:56.781Z,0
2018-12-26T05:34:58.293Z,0
2018-12-26T05:35:59.680Z,0
2018-12-26T05:37:01.159Z,0
2018-12-26T05:38:02.550Z,0
2018-12-26T05:39:03.943Z,0
2018-12-26T05:40:05.478Z,0
2018-12-26T05:41:06.867Z,0
2018-12-26T05:42:08.638Z,0
2018-12-26T05:43:10.207Z,0
2018-12-26T05:44:11.606Z,0
2018-12-26T05:45:13.090Z,0
2018-12-26T05:46:14.487Z,0
2018-12-26T05:47:15.967Z,0
2018-12-26T05:48:17.360Z,0
2018-12-26T05:49:18.745Z,0
2018-12-26T05:50:20.289Z,0
2018-12-26T05:51:21.682Z,0
2018-12-26T05:52:23.078Z,0
2018-12-26T05:53:24.608Z,0
2018-12-26T05:54:26.002Z,0
2018-12-26T05:55:27.395Z,0
2018-12-26T05:56:28.930Z,0
2018-12-26T05:57:30.362Z,0
2018-12-26T05:58:31.742Z,0
2018-12-26T05:59:33.253Z,0
2018-12-26T06:00:34.649Z,0
2018-12-26T06:01:36.135Z,0
2018-12-26T06:02:37.529Z,0
2018-12-26T06:03:39.018Z,0
2018-12-26T06:04:40.411Z,0
2018-12-26T06:05:41.896Z,0
2018-12-26T06:06:43.288Z,0
2018-12-26T06:07:44.776Z,0
2018-12-26T06:08:46.168Z,0
2018-12-26T06:09:47.658Z,0
2018-12-26T06:10:49.048Z,0
2018-12-26T06:11:50.539Z,0
2018-12-26T06:12:51.930Z,0
2018-12-26T06:13:53.324Z,0
2018-12-26T06:14:54.856Z,0
2018-12-26T06:15:56.250Z,0
2018-12-26T06:16:57.640Z,0
2018-12-26T06:17:59.189Z,0
2018-12-26T06:19:00.580Z,0
2018-12-26T06:20:01.974Z,0
2018-12-26T06:21:03.502Z,0
2018-12-26T06:22:04.896Z,0
2018-12-26T06:23:06.289Z,0
2018-12-26T06:24:07.824Z,0
2018-12-26T06:25:09.223Z,0
2018-12-26T06:26:10.703Z,0
2018-12-26T06:27:12.093Z,0
2018-12-26T06:28:13.874Z,0
2018-12-26T06:29:15.272Z,0
2018-12-26T06:30:16.658Z,0
2018-12-26T06:31:18.109Z,0
2018-12-26T06:32:19.521Z,0
2018-12-26T06:33:20.896Z,0
2018-12-26T06:34:22.528Z,0
2018-12-26T06:35:23.901Z,0
2018-12-26T06:36:25.316Z,0
2018-12-26T06:37:26.706Z,0
2018-12-26T06:38:28.193Z,0
2018-12-26T06:39:29.603Z,0
2018-12-26T06:40:31.073Z,0
2018-12-26T06:41:32.471Z,0
2018-12-26T06:42:33.957Z,0
2018-12-26T06:43:35.366Z,0
2018-12-26T06:44:36.766Z,0
2018-12-26T06:45:38.276Z,0
2018-12-26T06:46:39.669Z,0
2018-12-26T06:47:41.061Z,0
2018-12-26T06:48:42.614Z,0
2018-12-26T06:49:45.359Z,0
2018-12-26T06:50:45.365Z,0
2018-12-26T06:51:46.920Z,0
2018-12-26T06:52:48.310Z,0
2018-12-26T06:53:49.727Z,0
2018-12-26T06:54:51.240Z,0
2018-12-26T06:55:52.636Z,0
2018-12-26T06:56:54.026Z,0
2018-12-26T06:58:00.040Z,0
2018-12-26T06:58:56.917Z,0
2018-12-26T06:59:58.302Z,0
2018-12-26T07:00:59.685Z,0
2018-12-26T07:02:01.253Z,0
2018-12-26T07:03:02.646Z,0
2018-12-26T07:04:04.207Z,0
2018-12-26T07:05:05.602Z,0
2018-12-26T07:06:07.471Z,0
2018-12-26T07:07:08.862Z,0
2018-12-26T07:08:10.377Z,0
2018-12-26T07:09:11.736Z,0
2018-12-26T07:10:13.132Z,0
2018-12-26T07:11:14.709Z,0
2018-12-26T07:12:16.091Z,0
2018-12-26T07:13:17.878Z,0
2018-12-26T07:14:19.442Z,0
2018-12-26T07:15:20.870Z,0
2018-12-26T07:16:22.248Z,0
2018-12-26T07:17:23.752Z,0
2018-12-26T07:18:25.143Z,0
2018-12-26T07:19:26.538Z,0
2018-12-26T07:20:28.073Z,0
2018-12-26T07:21:29.466Z,0
2018-12-26T07:22:30.862Z,0
2018-12-26T07:23:32.396Z,0
2018-12-26T07:24:33.857Z,0
2018-12-26T07:25:35.253Z,0
2018-12-26T07:26:36.715Z,0
2018-12-26T07:27:38.116Z,0
2018-12-26T07:28:39.518Z,0
2018-12-26T07:29:41.225Z,0
2018-12-26T07:30:42.619Z,0
2018-12-26T07:31:44.012Z,0
2018-12-26T07:32:45.561Z,0
2018-12-26T07:33:46.961Z,0
2018-12-26T07:34:48.356Z,0
2018-12-26T07:35:50.290Z,0
2018-12-26T07:36:51.658Z,0
2018-12-26T07:37:53.888Z,0
2018-12-26T07:38:55.291Z,0
2018-12-26T07:39:56.877Z,0
2018-12-26T07:40:58.273Z,0
2018-12-26T07:41:59.757Z,0
2018-12-26T07:43:01.150Z,0
2018-12-26T07:44:02.637Z,0
2018-12-26T07:45:04.031Z,0
2018-12-26T07:46:05.519Z,0
2018-12-26T07:47:06.921Z,5
2018-12-26T07:48:08.567Z,5
2018-12-26T07:49:09.953Z,5
2018-12-26T07:50:11.350Z,5
2018-12-26T07:51:12.932Z,5
2018-12-26T07:52:14.323Z,5
2018-12-26T07:53:15.716Z,5
2018-12-26T07:54:17.247Z,5
2018-12-26T07:55:18.643Z,5
2018-12-26T07:56:20.044Z,5
2018-12-26T07:57:21.767Z,5
2018-12-26T07:58:23.164Z,5
2018-12-26T07:59:24.656Z,5
2018-12-26T08:00:26.459Z,5
2018-12-26T08:01:27.946Z,5
2018-12-26T08:02:29.338Z,5
2018-12-26T08:03:30.826Z,5
2018-12-26T08:04:32.227Z,5
2018-12-26T08:05:33.711Z,5
2018-12-26T08:06:35.105Z,5
2018-12-26T08:07:36.594Z,10
2018-12-26T08:08:37.991Z,10
2018-12-26T08:09:39.469Z,10
2018-12-26T08:10:40.867Z,10
2018-12-26T08:11:42.351Z,10
2018-12-26T08:12:43.745Z,10
2018-12-26T08:13:45.321Z,10
2018-12-26T08:14:46.591Z,10
2018-12-26T08:15:48.113Z,10
2018-12-26T08:16:49.508Z,10
2018-12-26T08:17:50.994Z,15
2018-12-26T08:18:52.391Z,15
2018-12-26T08:19:53.876Z,15
2018-12-26T08:20:55.271Z,15
2018-12-26T08:21:56.756Z,15
2018-12-26T08:22:58.161Z,15
2018-12-26T08:23:59.658Z,15
2018-12-26T08:25:01.052Z,15
2018-12-26T08:26:02.516Z,15
2018-12-26T08:27:04.292Z,15
2018-12-26T08:28:05.815Z,15
2018-12-26T08:29:07.206Z,15
2018-12-26T08:30:08.689Z,15
2018-12-26T08:31:10.125Z,10
2018-12-26T08:32:11.516Z,10
2018-12-26T08:33:13.114Z,15
2018-12-26T08:34:14.507Z,15
2018-12-26T08:35:15.903Z,15
2018-12-26T08:36:17.435Z,15
2018-12-26T08:37:18.831Z,20
2018-12-26T08:38:20.534Z,20
2018-12-26T08:39:21.927Z,20
2018-12-26T08:40:23.324Z,20
2018-12-26T08:41:24.846Z,20
2018-12-26T08:42:26.238Z,20
2018-12-26T08:43:27.640Z,20
2018-12-26T08:44:29.162Z,25
2018-12-26T08:45:30.561Z,25
2018-12-26T08:46:31.956Z,25
2018-12-26T08:47:33.491Z,30
2018-12-26T08:48:34.892Z,30
2018-12-26T08:49:36.275Z,30
2018-12-26T08:50:37.817Z,30
2018-12-26T08:51:39.212Z,25
2018-12-26T08:52:40.610Z,25
2018-12-26T08:53:42.137Z,25
2018-12-26T08:54:43.539Z,25
2018-12-26T08:55:44.934Z,25
2018-12-26T08:56:46.447Z,25
2018-12-26T08:57:47.842Z,25
2018-12-26T08:58:49.532Z,25
2018-12-26T08:59:50.928Z,25
2018-12-26T09:00:52.848Z,25
2018-12-26T09:01:54.219Z,25
2018-12-26T09:02:55.611Z,30
2018-12-26T09:03:57.146Z,30
2018-12-26T09:04:58.543Z,30
2018-12-26T09:05:59.941Z,30
2018-12-26T09:07:01.470Z,30
2018-12-26T09:08:02.866Z,30
2018-12-26T09:09:04.262Z,30
2018-12-26T09:10:05.790Z,30
2018-12-26T09:11:07.188Z,30
2018-12-26T09:12:08.577Z,30
2018-12-26T09:13:10.106Z,30
2018-12-26T09:14:11.510Z,30
2018-12-26T09:15:13.207Z,30
2018-12-26T09:16:14.593Z,25
2018-12-26T09:17:16.286Z,30
2018-12-26T09:18:17.683Z,30
2018-12-26T09:19:19.369Z,30
2018-12-26T09:20:20.803Z,30
2018-12-26T09:21:31.536Z,30
2018-12-26T09:22:32.929Z,30
2018-12-26T09:23:34.552Z,30
2018-12-26T09:24:35.946Z,30
2018-12-26T09:25:37.714Z,30
2018-12-26T09:26:39.196Z,35
2018-12-26T09:27:40.594Z,35
2018-12-26T09:28:43.951Z,35
2018-12-26T09:29:43.539Z,40
2018-12-26T09:30:44.942Z,35
2018-12-26T09:31:46.489Z,40
2018-12-26T09:32:47.887Z,40
2018-12-26T09:33:49.573Z,40
2018-12-26T09:34:50.972Z,40
2018-12-26T09:35:52.663Z,40
2018-12-26T09:36:54.059Z,35
2018-12-26T09:37:55.533Z,35
2018-12-26T09:38:57.194Z,35
2018-12-26T09:39:58.593Z,40
2018-12-26T09:40:59.985Z,40
2018-12-26T09:42:01.505Z,40
2018-12-26T09:43:02.904Z,40
2018-12-26T09:44:04.295Z,40
2018-12-26T09:45:05.831Z,40
2018-12-26T09:46:07.221Z,45
2018-12-26T09:47:08.615Z,45
2018-12-26T09:48:10.155Z,45
2018-12-26T09:49:11.546Z,45
2018-12-26T09:50:12.957Z,40
2018-12-26T09:51:14.677Z,45
2018-12-26T09:52:16.068Z,45
2018-12-26T09:53:17.458Z,50
2018-12-26T09:54:18.999Z,50
2018-12-26T09:55:20.395Z,50
2018-12-26T09:56:21.789Z,50
2018-12-26T09:57:23.321Z,50
2018-12-26T09:58:24.710Z,50
2018-12-26T09:59:26.129Z,45
2018-12-26T10:00:27.644Z,45
2018-12-26T10:01:29.033Z,50
2018-12-26T10:02:30.435Z,50
2018-12-26T10:03:31.863Z,50
2018-12-26T10:04:33.257Z,50
2018-12-26T10:05:34.649Z,50
2018-12-26T10:06:36.293Z,55
2018-12-26T10:07:37.700Z,55
2018-12-26T10:08:39.365Z,55
2018-12-26T10:09:40.763Z,50
2018-12-26T10:10:42.447Z,55
2018-12-26T10:11:43.849Z,55
2018-12-26T10:12:45.243Z,55
2018-12-26T10:13:46.769Z,50
2018-12-26T10:14:48.168Z,55
2018-12-26T10:15:49.562Z,50
2018-12-26T10:16:51.091Z,55
2018-12-26T10:17:52.487Z,55
2018-12-26T10:18:54.179Z,55
2018-12-26T10:19:55.574Z,55
2018-12-26T10:20:57.262Z,55
2018-12-26T10:21:58.655Z,55
2018-12-26T10:23:00.354Z,60
2018-12-26T10:24:01.748Z,60
2018-12-26T10:25:03.447Z,60
2018-12-26T10:26:04.847Z,55
2018-12-26T10:27:06.520Z,55
2018-12-26T10:28:08.010Z,55
2018-12-26T10:29:09.402Z,50
2018-12-26T10:30:10.799Z,50
2018-12-26T10:31:12.484Z,50
2018-12-26T10:32:13.978Z,55
2018-12-26T10:33:15.570Z,55
2018-12-26T10:34:16.967Z,55
2018-12-26T10:35:18.661Z,50
2018-12-26T10:36:20.054Z,50
2018-12-26T10:37:21.745Z,45
2018-12-26T10:38:27.968Z,45
2018-12-26T10:39:29.542Z,45
2018-12-26T10:40:30.989Z,40
2018-12-26T10:41:33.046Z,40
2018-12-26T10:42:34.405Z,40
2018-12-26T10:43:35.915Z,40
2018-12-26T10:44:37.313Z,40
2018-12-26T10:45:42.546Z,45
2018-12-26T10:46:44.007Z,45
2018-12-26T10:47:48.957Z,45
2018-12-26T10:48:50.161Z,45
2018-12-26T10:49:51.735Z,45
2018-12-26T10:50:53.133Z,40
2018-12-26T10:51:54.852Z,40
2018-12-26T10:52:56.249Z,40
2018-12-26T10:53:57.654Z,40
2018-12-26T10:54:59.343Z,45
2018-12-26T10:56:00.736Z,45
2018-12-26T10:57:02.163Z,50
2018-12-26T10:58:03.874Z,50
2018-12-26T10:59:10.096Z,55
2018-12-26T11:00:06.632Z,60
2018-12-26T11:01:08.187Z,70
2018-12-26T11:02:09.589Z,65
2018-12-26T11:03:10.978Z,70
2018-12-26T11:04:12.512Z,75
2018-12-26T11:05:13.906Z,80
2018-12-26T11:06:15.306Z,90
2018-12-26T11:07:16.905Z,95
2018-12-26T11:08:18.308Z,105
2018-12-26T11:09:19.918Z,100
2018-12-26T11:10:21.344Z,90
2018-12-26T11:11:23.003Z,80
2018-12-26T11:12:24.414Z,70
2018-12-26T11:13:26.171Z,75
2018-12-26T11:14:27.748Z,70
2018-12-26T11:15:29.489Z,65
2018-12-26T11:16:31.003Z,65
2018-12-26T11:17:32.780Z,70
2018-12-26T11:18:34.336Z,65
2018-12-26T11:19:36.073Z,65
2018-12-26T11:20:37.604Z,65
2018-12-26T11:21:39.382Z,65
2018-12-26T11:22:40.931Z,65
2018-12-26T11:23:42.473Z,65
2018-12-26T11:24:44.114Z,65
2018-12-26T11:25:47.516Z,65
2018-12-26T11:26:49.046Z,65
2018-12-26T11:27:52.891Z,65
2018-12-26T11:28:52.282Z,65
2018-12-26T11:29:53.985Z,70
2018-12-26T11:30:55.559Z,65
2018-12-26T11:31:57.267Z,70
2018-12-26T11:32:58.814Z,75
2018-12-26T11:34:00.354Z,75
2018-12-26T11:35:02.090Z,75
2018-12-26T11:36:03.656Z,80
2018-12-26T11:37:05.366Z,80
2018-12-26T11:38:07.219Z,85
2018-12-26T11:39:08.821Z,85
2018-12-26T11:40:10.371Z,85
2018-12-26T11:41:13.534Z,85
2018-12-26T11:42:15.561Z,90
2018-12-26T11:43:17.205Z,90
2018-12-26T11:44:18.853Z,95
2018-12-26T11:45:20.379Z,100
2018-12-26T11:46:22.221Z,100
2018-12-26T11:47:23.771Z,100
2018-12-26T11:48:25.711Z,100
2018-12-26T11:49:27.587Z,95
2018-12-26T11:50:29.088Z,100
2018-12-26T11:51:30.648Z,100
2018-12-26T11:52:33.503Z,95
2018-12-26T11:53:35.029Z,95
2018-12-26T11:54:36.604Z,90
2018-12-26T11:55:38.381Z,85
2018-12-26T11:56:39.971Z,80
2018-12-26T11:57:41.504Z,80
2018-12-26T11:58:43.265Z,75
2018-12-26T11:59:45.090Z,70
2018-12-26T12:00:46.609Z,70
2018-12-26T12:01:49.035Z,65
2018-12-26T12:02:50.899Z,70
2018-12-26T12:03:52.498Z,70
2018-12-26T12:04:54.183Z,75
2018-12-26T12:05:55.665Z,80
2018-12-26T12:06:57.341Z,80
2018-12-26T12:07:59.170Z,85
2018-12-26T12:09:00.715Z,90
2018-12-26T12:10:02.379Z,100
2018-12-26T12:11:03.890Z,110
2018-12-26T12:12:05.546Z,120
2018-12-26T12:13:07.422Z,125
2018-12-26T12:14:08.937Z,130
2018-12-26T12:15:10.400Z,135
2018-12-26T12:16:12.115Z,135
2018-12-26T12:17:13.588Z,130
2018-12-26T12:18:15.081Z,135
2018-12-26T12:19:16.821Z,135
2018-12-26T12:20:18.439Z,140
2018-12-26T12:21:20.133Z,130
2018-12-26T12:22:21.713Z,125
2018-12-26T12:23:23.317Z,120
2018-12-26T12:24:24.806Z,120
2018-12-26T12:25:26.296Z,120
2018-12-26T12:26:28.398Z,110
2018-12-26T12:27:29.385Z,105
2018-12-26T12:28:30.872Z,100
2018-12-26T12:29:35.948Z,95
2018-12-26T12:30:34.097Z,90
2018-12-26T12:31:35.589Z,85
2018-12-26T12:32:37.087Z,90
2018-12-26T12:33:38.841Z,85
2018-12-26T12:34:40.309Z,85
2018-12-26T12:35:42.169Z,90
2018-12-26T12:36:43.654Z,95
2018-12-26T12:37:45.759Z,90
2018-12-26T12:38:47.212Z,80
2018-12-26T12:39:48.688Z,75
2018-12-26T12:40:50.345Z,75
2018-12-26T12:41:51.886Z,80
2018-12-26T12:42:53.398Z,75
2018-12-26T12:43:55.038Z,70
2018-12-26T12:44:56.511Z,70
2018-12-26T12:45:58.176Z,70
2018-12-26T12:46:59.667Z,65
2018-12-26T12:48:01.487Z,65
2018-12-26T12:49:03.078Z,60
2018-12-26T12:50:04.772Z,60
2018-12-26T12:51:06.297Z,60
2018-12-26T12:52:08.043Z,60
2018-12-26T12:53:09.613Z,60
2018-12-26T12:54:11.465Z,55
2018-12-26T12:55:12.954Z,50
2018-12-26T12:56:14.649Z,50
2018-12-26T12:57:16.182Z,50
2018-12-26T12:58:18.049Z,50
2018-12-26T12:59:19.536Z,45
2018-12-26T13:00:21.260Z,45
2018-12-26T13:01:23.016Z,50
2018-12-26T13:02:24.877Z,50
2018-12-26T13:03:26.478Z,50
2018-12-26T13:04:28.323Z,50
2018-12-26T13:05:29.866Z,50
2018-12-26T13:06:32.141Z,50
2018-12-26T13:07:33.984Z,50
2018-12-26T13:08:35.859Z,50
2018-12-26T13:09:37.318Z,55
2018-12-26T13:10:39.083Z,55
2018-12-26T13:11:40.546Z,60
2018-12-26T13:12:42.259Z,60
2018-12-26T13:13:43.822Z,60
2018-12-26T13:14:45.330Z,60
2018-12-26T13:15:47.103Z,55
2018-12-26T13:16:48.801Z,55
2018-12-26T13:17:50.140Z,55
2018-12-26T13:18:51.839Z,55
2018-12-26T13:19:53.478Z,60
2018-12-26T13:20:54.966Z,60
2018-12-26T13:21:56.585Z,60
2018-12-26T13:22:58.326Z,60
2018-12-26T13:23:59.628Z,60
2018-12-26T13:25:01.249Z,60
2018-12-26T13:26:02.783Z,60
2018-12-26T13:27:04.574Z,60
2018-12-26T13:28:06.046Z,60
2018-12-26T13:29:07.637Z,60
2018-12-26T13:30:09.119Z,60
2018-12-26T13:31:10.774Z,60
2018-12-26T13:32:12.220Z,60
2018-12-26T13:33:13.907Z,60
2018-12-26T13:34:15.436Z,60
2018-12-26T13:35:16.907Z,60
2018-12-26T13:36:18.511Z,55
2018-12-26T13:37:19.965Z,55
2018-12-26T13:38:21.417Z,55
2018-12-26T13:39:23.100Z,55
2018-12-26T13:40:24.535Z,60
2018-12-26T13:41:26.109Z,60
2018-12-26T13:42:27.602Z,60
2018-12-26T13:43:29.227Z,60
2018-12-26T13:44:30.689Z,60
2018-12-26T13:45:32.167Z,60
2018-12-26T13:46:34.090Z,60
2018-12-26T13:47:35.197Z,60
2018-12-26T13:48:36.695Z,60
2018-12-26T13:49:38.311Z,60
2018-12-26T13:50:39.779Z,60
2018-12-26T13:51:41.391Z,55
2018-12-26T13:52:42.888Z,55
2018-12-26T13:53:44.493Z,55
2018-12-26T13:54:45.964Z,50
2018-12-26T13:55:47.468Z,50
2018-12-26T13:56:49.206Z,50
2018-12-26T13:57:50.645Z,50
2018-12-26T13:58:52.103Z,50
2018-12-26T14:00:02.096Z,50
2018-12-26T14:00:55.188Z,45
2018-12-26T14:01:56.786Z,45
2018-12-26T14:02:58.247Z,45
2018-12-26T14:03:59.959Z,45
2018-12-26T14:05:01.255Z,40
2018-12-26T14:06:02.695Z,40
2018-12-26T14:07:04.358Z,35
2018-12-26T14:08:05.814Z,35
2018-12-26T14:09:07.291Z,35
2018-12-26T14:10:08.900Z,35
2018-12-26T14:11:10.446Z,35
2018-12-26T14:12:11.891Z,35
2018-12-26T14:13:13.431Z,35
2018-12-26T14:14:14.902Z,30
2018-12-26T14:15:16.337Z,30
2018-12-26T14:16:17.983Z,30
2018-12-26T14:17:19.412Z,30
2018-12-26T14:18:20.818Z,25
2018-12-26T14:19:22.467Z,25
2018-12-26T14:20:24.005Z,25
2018-12-26T14:21:25.613Z,25
2018-12-26T14:22:27.076Z,25
2018-12-26T14:23:28.656Z,25
2018-12-26T14:24:30.107Z,25
2018-12-26T14:25:31.760Z,25
2018-12-26T14:26:33.265Z,25
2018-12-26T14:27:34.854Z,20
2018-12-26T14:28:36.315Z,20
2018-12-26T14:29:37.940Z,20
2018-12-26T14:30:39.371Z,20
2018-12-26T14:31:40.819Z,20
2018-12-26T14:32:42.433Z,20
2018-12-26T14:33:43.879Z,20
2018-12-26T14:34:45.332Z,20
2018-12-26T14:35:47.001Z,20
2018-12-26T14:36:48.457Z,20
2018-12-26T14:37:50.047Z,20
2018-12-26T14:38:51.472Z,20
2018-12-26T14:39:53.141Z,20
2018-12-26T14:40:54.590Z,20
2018-12-26T14:41:56.314Z,20
2018-12-26T14:42:57.769Z,15
2018-12-26T14:43:59.320Z,15
2018-12-26T14:45:00.780Z,15
2018-12-26T14:46:02.220Z,15
2018-12-26T14:47:03.865Z,15
2018-12-26T14:48:05.300Z,15
2018-12-26T14:49:06.841Z,15
2018-12-26T14:50:08.381Z,15
2018-12-26T14:51:09.839Z,15
2018-12-26T14:52:11.440Z,15
2018-12-26T14:53:12.906Z,15
2018-12-26T14:54:14.574Z,15